createdAt,value
2023-06-10T00:00:47.547Z,40.70
2023-06-10T00:03:16.252Z,41.60
2023-06-10T00:05:44.813Z,41.20
2023-06-10T00:08:13.119Z,41.00
2023-06-10T00:10:41.848Z,41.20
2023-06-10T00:13:12.331Z,42.10
2023-06-10T00:15:41.044Z,41.60
2023-06-10T00:18:11.408Z,41.90
2023-06-10T00:20:40.309Z,42.10
2023-06-10T00:23:09.654Z,42.00
2023-06-10T00:25:38.239Z,42.70
2023-06-10T00:28:06.766Z,42.30
2023-06-10T00:30:36.452Z,42.20
2023-06-10T00:33:04.781Z,42.80
2023-06-10T00:35:36.668Z,43.50
2023-06-10T00:38:04.957Z,43.50
2023-06-10T00:40:33.293Z,43.40
2023-06-10T00:43:01.940Z,43.00
2023-06-10T00:45:30.268Z,42.80
2023-06-10T00:48:02.094Z,42.90
2023-06-10T00:50:32.304Z,43.10
2023-06-10T00:53:02.000Z,43.80
2023-06-10T00:55:30.256Z,43.50
2023-06-10T00:57:58.534Z,43.50
2023-06-10T01:00:27.808Z,43.60
2023-06-10T01:02:56.601Z,43.90
2023-06-10T01:05:27.049Z,43.90
2023-06-10T01:08:03.712Z,44.00
2023-06-10T01:10:38.530Z,43.70
2023-06-10T01:13:12.913Z,43.80
2023-06-10T01:15:41.812Z,45.00
2023-06-10T01:18:16.465Z,43.60
2023-06-10T01:20:47.544Z,44.50
2023-06-10T01:23:18.211Z,43.80
2023-06-10T01:25:53.055Z,44.00
2023-06-10T01:28:29.829Z,44.70
2023-06-10T01:31:04.531Z,44.90
2023-06-10T01:33:37.968Z,45.10
2023-06-10T01:36:07.060Z,44.80
2023-06-10T01:38:42.950Z,45.10
2023-06-10T01:41:12.829Z,45.20
2023-06-10T01:43:41.593Z,45.60
2023-06-10T01:46:10.134Z,46.00
2023-06-10T01:48:38.594Z,46.50
2023-06-10T01:51:07.207Z,46.30
2023-06-10T01:53:39.186Z,47.10
2023-06-10T01:56:07.821Z,46.10
2023-06-10T01:58:36.222Z,47.80
2023-06-10T02:01:04.587Z,47.80
2023-06-10T02:03:33.048Z,47.60
2023-06-10T02:06:01.374Z,47.10
2023-06-10T02:08:29.943Z,47.20
2023-06-10T02:11:00.186Z,47.90
2023-06-10T02:13:31.761Z,48.00
2023-06-10T02:16:01.013Z,48.40
2023-06-10T02:18:31.373Z,48.00
2023-06-10T02:21:00.035Z,49.00
2023-06-10T02:23:28.909Z,48.50
2023-06-10T02:25:57.346Z,48.80
2023-06-10T02:28:28.777Z,48.80
2023-06-10T02:30:58.259Z,48.50
2023-06-10T02:33:28.392Z,48.90
2023-06-10T02:35:57.598Z,49.70
2023-06-10T02:38:27.135Z,49.40
2023-06-10T02:40:56.589Z,49.00
2023-06-10T02:43:25.842Z,49.00
2023-06-10T02:45:55.910Z,49.10
2023-06-10T02:48:26.102Z,49.70
2023-06-10T02:50:54.458Z,49.30
2023-06-10T02:53:29.807Z,49.60
2023-06-10T02:56:05.384Z,49.90
2023-06-10T02:58:33.989Z,49.50
2023-06-10T03:01:03.915Z,50.00
2023-06-10T03:03:43.792Z,49.80
2023-06-10T03:06:15.853Z,50.40
2023-06-10T03:08:44.838Z,50.10
2023-06-10T03:11:16.641Z,49.90
2023-06-10T03:13:45.049Z,50.40
2023-06-10T03:16:18.635Z,50.60
2023-06-10T03:18:47.878Z,50.50
2023-06-10T03:21:16.650Z,50.50
2023-06-10T03:23:45.085Z,50.50
2023-06-10T03:26:15.459Z,50.20
2023-06-10T03:28:46.910Z,50.50
2023-06-10T03:31:15.366Z,50.30
2023-06-10T03:33:45.506Z,50.80
2023-06-10T03:36:13.886Z,51.10
2023-06-10T03:38:42.586Z,51.10
2023-06-10T03:41:11.345Z,52.10
2023-06-10T03:43:43.258Z,51.50
2023-06-10T03:46:11.821Z,52.50
2023-06-10T03:48:41.200Z,52.50
2023-06-10T03:51:11.283Z,51.90
2023-06-10T03:53:39.733Z,52.60
2023-06-10T03:56:08.244Z,52.10
2023-06-10T03:58:36.616Z,52.60
2023-06-10T04:01:06.220Z,52.50
2023-06-10T04:03:37.264Z,53.40
2023-06-10T04:06:06.189Z,52.90
2023-06-10T04:08:37.119Z,53.70
2023-06-10T04:11:05.393Z,53.90
2023-06-10T04:13:33.636Z,53.90
2023-06-10T04:16:02.042Z,53.80
2023-06-10T04:18:30.803Z,54.30
2023-06-10T04:21:03.760Z,54.40
2023-06-10T04:23:33.240Z,54.60
2023-06-10T04:26:03.561Z,54.80
2023-06-10T04:28:32.019Z,54.60
2023-06-10T04:31:01.493Z,54.90
2023-06-10T04:33:30.606Z,55.20
2023-06-10T04:35:59.307Z,54.90
2023-06-10T04:38:31.805Z,55.40
2023-06-10T04:41:03.382Z,55.70
2023-06-10T04:43:35.395Z,55.80
2023-06-10T04:46:03.840Z,56.40
2023-06-10T04:48:36.446Z,56.50
2023-06-10T04:51:06.602Z,56.20
2023-06-10T04:53:34.817Z,55.80
2023-06-10T04:56:04.470Z,56.30
2023-06-10T04:58:32.679Z,55.40
2023-06-10T05:01:01.077Z,55.00
2023-06-10T05:03:29.345Z,55.70
2023-06-10T05:05:57.751Z,55.90
2023-06-10T05:08:26.035Z,56.80
2023-06-10T05:10:54.295Z,56.50
2023-06-10T05:13:24.223Z,55.40
2023-06-10T05:15:52.548Z,55.30
2023-06-10T05:18:20.742Z,56.30
2023-06-10T05:20:49.107Z,57.50
2023-06-10T05:23:17.288Z,56.00
2023-06-10T05:25:45.793Z,56.00
2023-06-10T05:28:15.994Z,56.20
2023-06-10T05:30:45.781Z,56.80
2023-06-10T05:33:14.127Z,58.20
2023-06-10T05:35:42.480Z,58.10
2023-06-10T05:38:10.702Z,58.00
2023-06-10T05:40:38.933Z,58.10
2023-06-10T05:43:07.273Z,57.30
2023-06-10T05:45:35.606Z,56.10
2023-06-10T05:48:06.225Z,56.40
2023-06-10T05:50:39.371Z,55.90
2023-06-10T05:53:09.412Z,56.10
2023-06-10T05:55:37.560Z,54.60
2023-06-10T05:58:05.811Z,54.70
2023-06-10T06:00:35.902Z,54.50
2023-06-10T06:03:08.951Z,54.90
2023-06-10T06:05:38.557Z,54.70
2023-06-10T06:08:08.093Z,54.60
2023-06-10T06:10:36.884Z,54.80
2023-06-10T06:13:05.523Z,55.70
2023-06-10T06:15:33.947Z,54.60
2023-06-10T06:18:02.260Z,54.70
2023-06-10T06:20:31.927Z,54.40
2023-06-10T06:23:00.205Z,55.10
2023-06-10T06:25:28.466Z,54.50
2023-06-10T06:27:56.963Z,54.60
2023-06-10T06:30:25.194Z,54.10
2023-06-10T06:32:54.331Z,53.50
2023-06-10T06:35:22.792Z,54.10
2023-06-10T06:37:52.473Z,53.10
2023-06-10T06:40:25.949Z,53.00
2023-06-10T06:42:54.245Z,53.40
2023-06-10T06:45:37.207Z,53.50
2023-06-10T06:48:07.380Z,53.00
2023-06-10T06:50:35.673Z,52.90
2023-06-10T06:53:05.904Z,53.30
2023-06-10T06:55:34.489Z,52.80
2023-06-10T06:58:05.376Z,53.50
2023-06-10T07:00:33.955Z,54.40
2023-06-10T07:03:02.586Z,53.90
2023-06-10T07:05:32.167Z,53.20
2023-06-10T07:08:00.783Z,54.40
2023-06-10T07:10:31.015Z,54.90
2023-06-10T07:12:59.385Z,55.10
2023-06-10T07:15:27.772Z,54.60
2023-06-10T07:17:56.806Z,53.70
2023-06-10T07:20:25.385Z,52.90
2023-06-10T07:22:53.700Z,52.40
2023-06-10T07:25:22.250Z,53.30
2023-06-10T07:27:51.917Z,52.30
2023-06-10T07:30:20.518Z,52.30
2023-06-10T07:32:48.994Z,52.60
2023-06-10T07:35:17.380Z,52.30
2023-06-10T07:37:45.785Z,53.00
2023-06-10T07:40:14.123Z,51.50
2023-06-10T07:42:43.044Z,51.70
2023-06-10T07:45:13.281Z,51.40
2023-06-10T07:47:41.672Z,51.30
2023-06-10T07:50:10.755Z,51.90
2023-06-10T07:52:39.038Z,51.40
2023-06-10T07:55:08.965Z,50.60
2023-06-10T07:57:39.566Z,51.30
2023-06-10T08:00:09.418Z,51.20
2023-06-10T08:02:44.949Z,51.20
2023-06-10T08:05:13.878Z,51.40
2023-06-10T08:07:42.953Z,50.80
2023-06-10T08:10:12.675Z,49.80
2023-06-10T08:12:41.302Z,49.90
2023-06-10T08:15:10.697Z,48.70
2023-06-10T08:17:40.172Z,48.50
2023-06-10T08:20:11.163Z,48.30
2023-06-10T08:22:40.170Z,48.50
2023-06-10T08:25:08.986Z,50.10
2023-06-10T08:27:37.240Z,51.00
2023-06-10T08:30:06.263Z,48.40
2023-06-10T08:32:34.397Z,47.70
2023-06-10T08:35:02.880Z,48.20
2023-06-10T08:37:32.490Z,45.70
2023-06-10T08:40:00.704Z,47.00
2023-06-10T08:42:37.778Z,45.40
2023-06-10T08:45:09.911Z,47.30
2023-06-10T08:47:42.633Z,44.30
2023-06-10T08:50:12.944Z,49.10
2023-06-10T08:52:46.856Z,44.20
2023-06-10T08:55:21.132Z,43.30
2023-06-10T08:57:49.855Z,43.80
2023-06-10T09:00:19.095Z,42.10
2023-06-10T09:02:48.506Z,42.70
2023-06-10T09:05:17.326Z,42.40
2023-06-10T09:07:50.102Z,42.80
2023-06-10T09:10:18.712Z,47.10
2023-06-10T09:12:47.083Z,45.70
2023-06-10T09:15:15.831Z,43.80
2023-06-10T09:17:44.225Z,43.00
2023-06-10T09:20:13.903Z,41.80
2023-06-10T09:22:44.178Z,42.50
2023-06-10T09:25:15.592Z,42.30
2023-06-10T09:27:51.704Z,43.40
2023-06-10T09:30:28.303Z,42.30
2023-06-10T09:32:58.180Z,41.80
2023-06-10T09:35:27.212Z,42.30
2023-06-10T09:37:57.160Z,42.10
2023-06-10T09:40:29.213Z,43.10
2023-06-10T09:42:59.277Z,42.70
2023-06-10T09:45:32.888Z,42.10
2023-06-10T09:48:01.389Z,42.90
2023-06-10T09:50:30.244Z,43.10
2023-06-10T09:52:58.698Z,43.40
2023-06-10T09:55:28.266Z,42.70
2023-06-10T09:57:56.814Z,42.20
2023-06-10T10:00:27.317Z,42.30
2023-06-10T10:02:56.651Z,42.20
2023-06-10T10:05:25.830Z,42.40
2023-06-10T10:07:54.564Z,42.00
2023-06-10T10:10:23.955Z,40.00
2023-06-10T10:12:58.370Z,39.20
2023-06-10T10:15:31.025Z,38.70
2023-06-10T10:18:08.651Z,38.10
2023-06-10T10:20:44.748Z,36.70
2023-06-10T10:23:16.208Z,38.50
2023-06-10T10:25:45.665Z,39.20
2023-06-10T10:28:17.514Z,36.40
2023-06-10T10:30:51.041Z,35.50
2023-06-10T10:33:23.549Z,36.40
2023-06-10T10:35:52.561Z,36.40
2023-06-10T10:38:21.665Z,34.80
2023-06-10T10:40:50.596Z,32.50
2023-06-10T10:43:21.262Z,32.80
2023-06-10T10:46:01.209Z,34.40
2023-06-10T10:48:35.595Z,32.50
2023-06-10T10:51:03.935Z,34.60
2023-06-10T10:53:32.826Z,34.50
2023-06-10T10:56:01.945Z,30.40
2023-06-10T10:58:31.537Z,29.60
2023-06-10T11:01:00.184Z,29.80
2023-06-10T11:03:31.612Z,30.60
2023-06-10T11:06:01.260Z,31.80
2023-06-10T11:08:51.867Z,32.30
2023-06-10T11:11:23.042Z,31.60
2023-06-10T11:14:10.001Z,30.20
2023-06-10T11:16:43.885Z,30.20
2023-06-10T11:19:12.253Z,30.80
2023-06-10T11:22:02.072Z,27.00
2023-06-10T11:24:31.443Z,29.00
2023-06-10T11:27:18.558Z,30.90
2023-06-10T11:30:19.683Z,31.90
2023-06-10T11:32:53.956Z,31.00
2023-06-10T11:35:25.597Z,30.20
2023-06-10T11:37:53.993Z,29.60
2023-06-10T11:40:22.413Z,32.10
2023-06-10T11:42:50.776Z,29.10
2023-06-10T11:45:20.613Z,26.80
2023-06-10T11:47:59.271Z,28.40
2023-06-10T11:50:32.437Z,29.10
2023-06-10T11:53:02.585Z,28.20
2023-06-10T11:55:46.897Z,28.30
2023-06-10T11:58:16.506Z,29.30
2023-06-10T12:00:50.535Z,28.80
2023-06-10T12:03:19.605Z,31.20
2023-06-10T12:06:03.795Z,31.60
2023-06-10T12:08:35.300Z,31.10
2023-06-10T12:11:05.347Z,31.50
2023-06-10T12:13:33.617Z,26.80
2023-06-10T12:16:11.190Z,27.30
2023-06-10T12:18:39.562Z,30.40
2023-06-10T12:25:02.726Z,30.10
2023-06-10T12:27:31.569Z,26.80
2023-06-10T12:30:02.627Z,25.40
2023-06-10T12:32:44.609Z,25.60
2023-06-10T12:35:15.083Z,25.40
2023-06-10T12:37:44.194Z,26.10
2023-06-10T12:40:13.621Z,27.10
2023-06-10T12:42:43.128Z,25.90
2023-06-10T12:45:13.635Z,24.20
2023-06-10T12:47:44.108Z,24.40
2023-06-10T12:50:14.176Z,26.00
2023-06-10T12:52:43.565Z,25.80
2023-06-10T12:55:12.349Z,25.90
2023-06-10T12:57:51.237Z,28.30
2023-06-10T13:00:20.957Z,27.20
2023-06-10T13:02:51.755Z,29.50
2023-06-10T13:05:20.731Z,26.80
2023-06-10T13:07:49.407Z,27.30
2023-06-10T13:10:18.613Z,28.20
2023-06-10T13:12:48.869Z,26.70
2023-06-10T13:15:18.676Z,26.00
2023-06-10T13:17:51.067Z,25.80
2023-06-10T13:20:22.504Z,26.20
2023-06-10T13:22:50.964Z,26.50
2023-06-10T13:25:19.291Z,27.80
2023-06-10T13:27:47.969Z,27.40
2023-06-10T13:30:16.504Z,26.70
2023-06-10T13:32:44.965Z,27.00
2023-06-10T13:35:13.453Z,26.10
2023-06-10T13:37:43.623Z,24.90
2023-06-10T13:40:12.953Z,25.90
2023-06-10T13:42:41.408Z,26.20
2023-06-10T13:45:11.021Z,25.70
2023-06-10T13:47:39.883Z,26.20
2023-06-10T13:50:09.732Z,25.40
2023-06-10T13:52:38.051Z,26.60
2023-06-10T13:55:09.499Z,24.80
2023-06-10T13:57:38.197Z,23.70
2023-06-10T14:00:07.880Z,24.30
2023-06-10T14:02:36.123Z,26.90
2023-06-10T14:05:04.842Z,24.80
2023-06-10T14:07:33.340Z,23.60
2023-06-10T14:10:01.980Z,23.50
2023-06-10T14:12:32.119Z,23.70
2023-06-10T14:15:00.566Z,22.20
2023-06-10T14:17:29.290Z,23.80
2023-06-10T14:19:57.638Z,25.00
2023-06-10T14:22:25.871Z,22.90
2023-06-10T14:24:54.389Z,23.60
2023-06-10T14:27:22.640Z,23.90
2023-06-10T14:29:52.545Z,23.50
2023-06-10T14:32:21.198Z,23.30
2023-06-10T14:34:49.795Z,23.80
2023-06-10T14:37:18.121Z,23.10
2023-06-10T14:39:46.412Z,22.10
2023-06-10T14:42:14.642Z,22.40
2023-06-10T14:44:43.472Z,22.60
2023-06-10T14:47:13.300Z,21.60
2023-06-10T14:49:43.088Z,21.00
2023-06-10T14:52:11.660Z,21.60
2023-06-10T14:54:39.949Z,20.80
2023-06-10T14:57:08.975Z,20.80
2023-06-10T14:59:37.333Z,20.60
2023-06-10T15:02:06.096Z,20.70
2023-06-10T15:04:36.196Z,21.50
2023-06-10T15:07:04.773Z,22.60
2023-06-10T15:09:33.351Z,22.60
2023-06-10T15:12:02.011Z,22.10
2023-06-10T15:14:30.225Z,22.20
2023-06-10T15:17:00.431Z,23.30
2023-06-10T15:19:29.136Z,23.60
2023-06-10T15:21:59.036Z,23.70
2023-06-10T15:24:27.563Z,23.10
2023-06-10T15:26:56.086Z,23.80
2023-06-10T15:29:24.308Z,24.00
2023-06-10T15:31:52.587Z,23.70
2023-06-10T15:34:20.796Z,25.40
2023-06-10T15:36:49.104Z,24.70
2023-06-10T15:39:19.820Z,25.00
2023-06-10T15:41:48.521Z,24.80
2023-06-10T15:44:16.814Z,23.40
2023-06-10T15:46:45.589Z,22.30
2023-06-10T15:49:14.194Z,22.30
2023-06-10T15:51:48.111Z,22.90
2023-06-10T15:54:19.976Z,22.90
2023-06-10T15:56:48.323Z,21.50
2023-06-10T15:59:16.620Z,22.60
2023-06-10T16:01:45.112Z,22.10
2023-06-10T16:04:13.618Z,23.00
2023-06-10T16:06:42.189Z,22.90
2023-06-10T16:09:10.494Z,23.40
2023-06-10T16:11:40.190Z,24.50
2023-06-10T16:14:08.707Z,23.10
2023-06-10T16:16:37.019Z,24.60
2023-06-10T16:19:05.438Z,23.40
2023-06-10T16:21:33.702Z,22.60
2023-06-10T16:24:02.039Z,22.10
2023-06-10T16:26:30.307Z,23.10
2023-06-10T16:29:00.082Z,23.30
2023-06-10T16:31:28.465Z,23.00
2023-06-10T16:33:56.889Z,22.80
2023-06-10T16:36:25.227Z,22.70
2023-06-10T16:38:55.465Z,21.90
2023-06-10T16:41:23.996Z,22.30
2023-06-10T16:43:52.362Z,22.00
2023-06-10T16:46:23.887Z,21.60
2023-06-10T16:48:52.319Z,21.80
2023-06-10T16:51:20.860Z,21.50
2023-06-10T16:53:49.279Z,22.20
2023-06-10T16:56:17.622Z,21.80
2023-06-10T16:58:45.889Z,22.10
2023-06-10T17:01:14.444Z,22.00
2023-06-10T17:03:44.369Z,22.50
2023-06-10T17:06:12.994Z,22.80
2023-06-10T17:08:41.498Z,22.60
2023-06-10T17:11:09.776Z,23.70
2023-06-10T17:13:41.528Z,20.60
2023-06-10T17:16:10.667Z,22.50
2023-06-10T17:18:39.205Z,22.80
2023-06-10T17:21:09.145Z,22.00
2023-06-10T17:23:37.675Z,21.10
2023-06-10T17:26:05.955Z,22.50
2023-06-10T17:28:34.251Z,22.80
2023-06-10T17:31:02.521Z,21.10
2023-06-10T17:33:31.026Z,22.80
2023-06-10T17:35:59.169Z,23.50
2023-06-10T17:38:28.859Z,23.90
2023-06-10T17:40:57.286Z,23.90
2023-06-10T17:43:25.777Z,24.50
2023-06-10T17:45:54.098Z,24.30
2023-06-10T17:48:22.325Z,23.40
2023-06-10T17:50:50.644Z,23.70
2023-06-10T17:53:18.804Z,23.30
2023-06-10T17:55:48.503Z,22.50
2023-06-10T17:58:16.737Z,23.40
2023-06-10T18:00:45.014Z,23.60
2023-06-10T18:03:13.319Z,26.00
2023-06-10T18:05:41.619Z,25.90
2023-06-10T18:08:09.825Z,25.40
2023-06-10T18:10:38.034Z,24.40
2023-06-10T18:13:07.549Z,25.30
2023-06-10T18:15:37.779Z,26.10
2023-06-10T18:18:06.786Z,25.50
2023-06-10T18:20:35.308Z,25.90
2023-06-10T18:23:03.869Z,26.70
2023-06-10T18:25:32.138Z,27.20
2023-06-10T18:28:00.446Z,29.00
2023-06-10T18:30:30.157Z,29.80
2023-06-10T18:32:58.549Z,30.30
2023-06-10T18:35:26.880Z,29.80
2023-06-10T18:37:55.110Z,28.80
2023-06-10T18:40:23.792Z,27.40
2023-06-10T18:42:51.948Z,27.40
2023-06-10T18:45:20.503Z,27.80
2023-06-10T18:50:24.936Z,27.20
2023-06-10T18:52:53.363Z,27.10
2023-06-10T18:55:21.803Z,27.30
2023-06-10T18:57:50.050Z,27.70
2023-06-10T19:00:18.962Z,28.10
2023-06-10T19:02:47.302Z,27.90
2023-06-10T19:05:17.065Z,27.90
2023-06-10T19:07:45.266Z,27.30
2023-06-10T19:10:13.776Z,27.20
2023-06-10T19:12:42.094Z,26.80
2023-06-10T19:15:11.801Z,27.80
2023-06-10T19:17:40.311Z,28.70
2023-06-10T19:20:10.549Z,29.00
2023-06-10T19:22:40.236Z,28.80
2023-06-10T19:25:09.867Z,28.30
2023-06-10T19:27:38.283Z,27.50
2023-06-10T19:30:07.621Z,28.20
2023-06-10T19:32:35.903Z,28.80
2023-06-10T19:35:06.901Z,29.70
2023-06-10T19:37:35.206Z,29.10
2023-06-10T19:40:06.015Z,30.40
2023-06-10T19:42:38.152Z,30.00
2023-06-10T19:45:08.478Z,30.40
2023-06-10T19:47:37.197Z,30.10
2023-06-10T19:50:06.737Z,31.10
2023-06-10T19:52:35.019Z,31.90
2023-06-10T19:55:05.301Z,32.20
2023-06-10T19:57:33.580Z,32.40
2023-06-10T20:00:01.756Z,32.80
2023-06-10T20:02:30.373Z,32.60
2023-06-10T20:04:58.782Z,33.00
2023-06-10T20:07:27.124Z,35.10
2023-06-10T20:09:55.410Z,34.50
2023-06-10T20:12:25.058Z,34.60
2023-06-10T20:14:53.350Z,34.90
2023-06-10T20:17:21.712Z,34.60
2023-06-10T20:19:53.541Z,34.80
2023-06-10T20:22:21.916Z,34.50
2023-06-10T20:24:51.982Z,34.20
2023-06-10T20:27:20.279Z,34.10
2023-06-10T20:29:49.973Z,34.30
2023-06-10T20:32:18.325Z,35.30
2023-06-10T20:34:46.549Z,35.30
2023-06-10T20:37:14.912Z,36.40
2023-06-10T20:39:43.852Z,35.80
2023-06-10T20:42:14.258Z,35.70
2023-06-10T20:44:44.377Z,35.30
2023-06-10T20:47:14.000Z,35.60
2023-06-10T20:49:42.225Z,35.80
2023-06-10T20:52:10.609Z,36.80
2023-06-10T20:54:38.792Z,35.90
2023-06-10T20:57:07.826Z,36.70
2023-06-10T20:59:36.321Z,36.00
2023-06-10T21:02:04.535Z,36.20
2023-06-10T21:04:34.547Z,36.50
2023-06-10T21:07:03.154Z,35.30
2023-06-10T21:09:31.397Z,35.10
2023-06-10T21:11:59.563Z,35.00
2023-06-10T21:14:27.722Z,35.00
2023-06-10T21:16:55.968Z,35.80
2023-06-10T21:19:24.194Z,35.60
2023-06-10T21:21:53.815Z,35.80
2023-06-10T21:24:22.161Z,36.10
2023-06-10T21:26:50.694Z,36.20
2023-06-10T21:29:19.090Z,35.90
2023-06-10T21:31:47.430Z,35.90
2023-06-10T21:34:15.815Z,36.30
2023-06-10T21:36:44.296Z,36.10
2023-06-10T21:39:13.907Z,36.00
2023-06-10T21:41:42.027Z,35.80
2023-06-10T21:44:10.542Z,35.50
2023-06-10T21:46:39.567Z,35.80
2023-06-10T21:49:07.845Z,36.00
2023-06-10T21:51:36.048Z,36.20
2023-06-10T21:54:04.354Z,36.30
2023-06-10T21:56:34.950Z,36.40
2023-06-10T21:59:03.292Z,36.50
2023-06-10T22:01:36.559Z,36.10
2023-06-10T22:04:05.762Z,36.70
2023-06-10T22:06:34.844Z,36.80
2023-06-10T22:09:03.513Z,36.70
2023-06-10T22:11:33.427Z,37.20
2023-06-10T22:14:01.641Z,37.30
2023-06-10T22:16:30.207Z,37.40
2023-06-10T22:18:58.485Z,37.40
2023-06-10T22:21:26.984Z,36.30
2023-06-10T22:23:55.788Z,36.80
2023-06-10T22:26:25.086Z,36.60
2023-06-10T22:28:59.198Z,36.30
2023-06-10T22:31:30.681Z,37.20
2023-06-10T22:33:59.208Z,36.70
2023-06-10T22:36:27.525Z,38.30
2023-06-10T22:38:55.663Z,36.80
2023-06-10T22:41:23.912Z,37.00
2023-06-10T22:43:52.715Z,37.70
2023-06-10T22:46:22.350Z,39.00
2023-06-10T22:48:50.787Z,39.00
2023-06-10T22:51:19.155Z,39.50
2023-06-10T22:53:47.634Z,39.40
2023-06-10T22:56:16.170Z,39.90
2023-06-10T22:58:44.369Z,40.40
2023-06-10T23:01:12.489Z,39.30
2023-06-10T23:03:42.696Z,39.10
2023-06-10T23:06:10.904Z,39.80
2023-06-10T23:08:39.140Z,40.30
2023-06-10T23:11:07.322Z,40.00
2023-06-10T23:13:35.587Z,39.90
2023-06-10T23:16:03.905Z,40.50
2023-06-10T23:18:32.256Z,41.40
2023-06-10T23:21:01.927Z,41.50
2023-06-10T23:23:34.839Z,40.90
2023-06-10T23:26:03.644Z,41.10
2023-06-10T23:28:31.853Z,42.20
2023-06-10T23:31:00.169Z,42.80
2023-06-10T23:33:29.566Z,42.90
2023-06-10T23:35:58.016Z,43.30
2023-06-10T23:38:27.718Z,42.70
2023-06-10T23:40:56.187Z,41.70
2023-06-10T23:43:24.674Z,43.20
2023-06-10T23:45:53.106Z,41.60
2023-06-10T23:48:21.268Z,42.70
2023-06-10T23:50:49.420Z,43.10
2023-06-10T23:53:17.633Z,42.80
2023-06-10T23:55:47.453Z,42.70
2023-06-10T23:58:15.975Z,42.90
